sensor_id;sensor_type;location;lat;lon;timestamp;P1;durP1;ratioP1;P2;durP2;ratioP2
71769;SDS011;59605;52.122;5.420;2022-10-31T00:00:44;1.52;;;0.80;;
71769;SDS011;59605;52.122;5.420;2022-10-31T00:03:11;1.15;;;1.05;;
71769;SDS011;59605;52.122;5.420;2022-10-31T00:05:41;2.40;;;1.17;;
71769;SDS011;59605;52.122;5.420;2022-10-31T00:08:09;2.50;;;1.08;;
71769;SDS011;59605;52.122;5.420;2022-10-31T00:10:39;1.75;;;0.85;;
71769;SDS011;59605;52.122;5.420;2022-10-31T00:13:06;1.52;;;1.05;;
71769;SDS011;59605;52.122;5.420;2022-10-31T00:15:34;3.40;;;1.20;;
71769;SDS011;59605;52.122;5.420;2022-10-31T00:18:01;2.43;;;1.00;;
71769;SDS011;59605;52.122;5.420;2022-10-31T00:20:29;1.50;;;1.10;;
71769;SDS011;59605;52.122;5.420;2022-10-31T00:22:59;2.40;;;1.35;;
71769;SDS011;59605;52.122;5.420;2022-10-31T00:25:26;2.80;;;1.10;;
71769;SDS011;59605;52.122;5.420;2022-10-31T00:27:54;3.40;;;1.33;;
71769;SDS011;59605;52.122;5.420;2022-10-31T00:30:21;3.30;;;1.00;;
71769;SDS011;59605;52.122;5.420;2022-10-31T00:32:47;2.65;;;1.08;;
71769;SDS011;59605;52.122;5.420;2022-10-31T00:35:13;3.75;;;1.38;;
71769;SDS011;59605;52.122;5.420;2022-10-31T00:37:40;2.30;;;0.93;;
71769;SDS011;59605;52.122;5.420;2022-10-31T00:40:06;3.47;;;1.45;;
71769;SDS011;59605;52.122;5.420;2022-10-31T00:42:33;2.60;;;1.30;;
71769;SDS011;59605;52.122;5.420;2022-10-31T00:44:59;2.00;;;1.15;;
71769;SDS011;59605;52.122;5.420;2022-10-31T00:47:26;2.40;;;1.00;;
71769;SDS011;59605;52.122;5.420;2022-10-31T00:49:52;2.58;;;1.40;;
71769;SDS011;59605;52.122;5.420;2022-10-31T00:52:18;1.52;;;0.90;;
71769;SDS011;59605;52.122;5.420;2022-10-31T00:54:45;3.60;;;1.00;;
71769;SDS011;59605;52.122;5.420;2022-10-31T00:57:11;2.15;;;1.10;;
71769;SDS011;59605;52.122;5.420;2022-10-31T00:59:38;2.20;;;1.30;;
71769;SDS011;59605;52.122;5.420;2022-10-31T01:02:04;3.17;;;1.20;;
71769;SDS011;59605;52.122;5.420;2022-10-31T01:04:30;1.38;;;1.10;;
71769;SDS011;59605;52.122;5.420;2022-10-31T01:06:57;2.50;;;1.30;;
71769;SDS011;59605;52.122;5.420;2022-10-31T01:09:23;2.58;;;0.90;;
71769;SDS011;59605;52.122;5.420;2022-10-31T01:11:49;2.83;;;1.20;;
71769;SDS011;59605;52.122;5.420;2022-10-31T01:14:16;3.20;;;1.25;;
71769;SDS011;59605;52.122;5.420;2022-10-31T01:16:42;1.98;;;1.00;;
71769;SDS011;59605;52.122;5.420;2022-10-31T01:19:08;1.87;;;1.00;;
71769;SDS011;59605;52.122;5.420;2022-10-31T01:21:35;2.42;;;0.98;;
71769;SDS011;59605;52.122;5.420;2022-10-31T01:24:01;1.38;;;0.88;;
71769;SDS011;59605;52.122;5.420;2022-10-31T01:26:31;2.33;;;1.00;;
71769;SDS011;59605;52.122;5.420;2022-10-31T01:29:03;1.48;;;1.00;;
71769;SDS011;59605;52.122;5.420;2022-10-31T01:31:33;1.57;;;0.90;;
71769;SDS011;59605;52.122;5.420;2022-10-31T01:34:01;2.97;;;0.90;;
71769;SDS011;59605;52.122;5.420;2022-10-31T01:36:30;2.47;;;1.10;;
71769;SDS011;59605;52.122;5.420;2022-10-31T01:39:00;1.65;;;1.00;;
71769;SDS011;59605;52.122;5.420;2022-10-31T01:41:29;2.15;;;0.90;;
71769;SDS011;59605;52.122;5.420;2022-10-31T01:43:59;1.70;;;0.90;;
71769;SDS011;59605;52.122;5.420;2022-10-31T01:48:56;2.00;;;0.85;;
71769;SDS011;59605;52.122;5.420;2022-10-31T01:51:26;1.55;;;0.88;;
71769;SDS011;59605;52.122;5.420;2022-10-31T01:53:57;2.50;;;1.10;;
71769;SDS011;59605;52.122;5.420;2022-10-31T01:56:25;1.93;;;1.33;;
71769;SDS011;59605;52.122;5.420;2022-10-31T01:58:52;1.45;;;0.80;;
71769;SDS011;59605;52.122;5.420;2022-10-31T02:01:22;4.18;;;1.08;;
71769;SDS011;59605;52.122;5.420;2022-10-31T02:03:49;1.75;;;0.90;;
71769;SDS011;59605;52.122;5.420;2022-10-31T02:06:21;2.35;;;0.80;;
71769;SDS011;59605;52.122;5.420;2022-10-31T02:08:56;2.77;;;1.10;;
71769;SDS011;59605;52.122;5.420;2022-10-31T02:11:27;2.38;;;0.88;;
71769;SDS011;59605;52.122;5.420;2022-10-31T02:13:54;1.98;;;1.02;;
71769;SDS011;59605;52.122;5.420;2022-10-31T02:16:20;1.92;;;0.90;;
71769;SDS011;59605;52.122;5.420;2022-10-31T02:18:47;1.95;;;0.98;;
71769;SDS011;59605;52.122;5.420;2022-10-31T02:26:41;2.38;;;1.08;;
71769;SDS011;59605;52.122;5.420;2022-10-31T02:35:01;1.67;;;1.00;;
71769;SDS011;59605;52.122;5.420;2022-10-31T02:46:21;1.42;;;0.75;;
71769;SDS011;59605;52.122;5.420;2022-10-31T02:48:54;1.77;;;1.10;;
71769;SDS011;59605;52.122;5.420;2022-10-31T02:51:27;1.20;;;0.80;;
71769;SDS011;59605;52.122;5.420;2022-10-31T02:53:54;1.83;;;0.73;;
71769;SDS011;59605;52.122;5.420;2022-10-31T02:56:20;1.00;;;0.70;;
71769;SDS011;59605;52.122;5.420;2022-10-31T02:58:51;1.90;;;0.73;;
71769;SDS011;59605;52.122;5.420;2022-10-31T03:06:58;1.00;;;0.80;;
71769;SDS011;59605;52.122;5.420;2022-10-31T03:17:22;1.88;;;0.80;;
71769;SDS011;59605;52.122;5.420;2022-10-31T03:19:53;2.03;;;1.08;;
71769;SDS011;59605;52.122;5.420;2022-10-31T03:22:23;1.10;;;0.70;;
71769;SDS011;59605;52.122;5.420;2022-10-31T03:24:52;2.45;;;0.55;;
71769;SDS011;59605;52.122;5.420;2022-10-31T03:27:25;1.47;;;0.60;;
71769;SDS011;59605;52.122;5.420;2022-10-31T03:29:55;1.08;;;0.80;;
71769;SDS011;59605;52.122;5.420;2022-10-31T03:32:43;1.70;;;0.57;;
71769;SDS011;59605;52.122;5.420;2022-10-31T03:35:17;2.17;;;0.70;;
71769;SDS011;59605;52.122;5.420;2022-10-31T03:37:46;1.30;;;0.55;;
71769;SDS011;59605;52.122;5.420;2022-10-31T03:40:15;2.73;;;0.60;;
71769;SDS011;59605;52.122;5.420;2022-10-31T03:42:46;1.20;;;0.45;;
71769;SDS011;59605;52.122;5.420;2022-10-31T03:45:25;1.83;;;0.73;;
71769;SDS011;59605;52.122;5.420;2022-10-31T03:47:55;0.80;;;0.50;;
71769;SDS011;59605;52.122;5.420;2022-10-31T03:50:25;1.00;;;0.82;;
71769;SDS011;59605;52.122;5.420;2022-10-31T03:53:06;0.93;;;0.60;;
71769;SDS011;59605;52.122;5.420;2022-10-31T03:55:52;1.27;;;0.50;;
71769;SDS011;59605;52.122;5.420;2022-10-31T03:58:28;0.88;;;0.60;;
71769;SDS011;59605;52.122;5.420;2022-10-31T04:00:59;1.00;;;0.68;;
71769;SDS011;59605;52.122;5.420;2022-10-31T04:03:30;1.55;;;0.68;;
71769;SDS011;59605;52.122;5.420;2022-10-31T04:06:00;1.37;;;0.70;;
71769;SDS011;59605;52.122;5.420;2022-10-31T04:08:31;1.48;;;0.57;;
71769;SDS011;59605;52.122;5.420;2022-10-31T04:11:01;1.67;;;0.60;;
71769;SDS011;59605;52.122;5.420;2022-10-31T04:13:31;2.35;;;0.73;;
71769;SDS011;59605;52.122;5.420;2022-10-31T04:16:01;1.13;;;0.93;;
71769;SDS011;59605;52.122;5.420;2022-10-31T04:18:28;0.73;;;0.40;;
71769;SDS011;59605;52.122;5.420;2022-10-31T04:21:02;0.90;;;0.63;;
71769;SDS011;59605;52.122;5.420;2022-10-31T04:23:33;1.50;;;0.63;;
71769;SDS011;59605;52.122;5.420;2022-10-31T04:26:00;1.48;;;0.52;;
71769;SDS011;59605;52.122;5.420;2022-10-31T04:28:27;1.23;;;0.60;;
71769;SDS011;59605;52.122;5.420;2022-10-31T04:30:53;1.07;;;0.60;;
71769;SDS011;59605;52.122;5.420;2022-10-31T04:33:19;1.55;;;0.73;;
71769;SDS011;59605;52.122;5.420;2022-10-31T04:35:46;1.20;;;0.75;;
71769;SDS011;59605;52.122;5.420;2022-10-31T04:38:13;1.85;;;0.57;;
71769;SDS011;59605;52.122;5.420;2022-10-31T04:40:39;1.33;;;0.63;;
71769;SDS011;59605;52.122;5.420;2022-10-31T04:43:05;1.97;;;0.70;;
71769;SDS011;59605;52.122;5.420;2022-10-31T04:45:32;1.30;;;0.60;;
71769;SDS011;59605;52.122;5.420;2022-10-31T04:47:58;0.70;;;0.57;;
71769;SDS011;59605;52.122;5.420;2022-10-31T04:50:25;1.02;;;0.50;;
71769;SDS011;59605;52.122;5.420;2022-10-31T04:52:51;1.40;;;0.73;;
71769;SDS011;59605;52.122;5.420;2022-10-31T04:55:18;1.37;;;0.50;;
71769;SDS011;59605;52.122;5.420;2022-10-31T04:57:45;1.83;;;0.68;;
71769;SDS011;59605;52.122;5.420;2022-10-31T05:00:14;1.70;;;0.70;;
71769;SDS011;59605;52.122;5.420;2022-10-31T05:02:42;1.35;;;0.60;;
71769;SDS011;59605;52.122;5.420;2022-10-31T05:05:13;1.27;;;0.60;;
71769;SDS011;59605;52.122;5.420;2022-10-31T05:07:41;0.90;;;0.40;;
71769;SDS011;59605;52.122;5.420;2022-10-31T05:10:11;1.00;;;0.70;;
71769;SDS011;59605;52.122;5.420;2022-10-31T05:12:46;1.17;;;0.80;;
71769;SDS011;59605;52.122;5.420;2022-10-31T05:15:14;1.83;;;0.70;;
71769;SDS011;59605;52.122;5.420;2022-10-31T05:17:41;1.20;;;0.65;;
71769;SDS011;59605;52.122;5.420;2022-10-31T05:20:08;0.70;;;0.50;;
71769;SDS011;59605;52.122;5.420;2022-10-31T05:22:35;1.30;;;0.70;;
71769;SDS011;59605;52.122;5.420;2022-10-31T05:25:02;1.13;;;0.90;;
71769;SDS011;59605;52.122;5.420;2022-10-31T05:27:29;1.27;;;0.80;;
71769;SDS011;59605;52.122;5.420;2022-10-31T05:29:55;1.13;;;0.60;;
71769;SDS011;59605;52.122;5.420;2022-10-31T05:32:21;1.93;;;0.70;;
71769;SDS011;59605;52.122;5.420;2022-10-31T05:34:48;1.35;;;0.68;;
71769;SDS011;59605;52.122;5.420;2022-10-31T05:37:14;1.67;;;1.05;;
71769;SDS011;59605;52.122;5.420;2022-10-31T05:39:40;1.55;;;0.98;;
71769;SDS011;59605;52.122;5.420;2022-10-31T05:42:07;1.85;;;0.73;;
71769;SDS011;59605;52.122;5.420;2022-10-31T05:44:33;1.20;;;0.90;;
71769;SDS011;59605;52.122;5.420;2022-10-31T05:46:59;2.33;;;0.73;;
71769;SDS011;59605;52.122;5.420;2022-10-31T05:49:26;2.60;;;0.90;;
71769;SDS011;59605;52.122;5.420;2022-10-31T05:51:52;1.52;;;0.75;;
71769;SDS011;59605;52.122;5.420;2022-10-31T05:54:18;1.83;;;0.80;;
71769;SDS011;59605;52.122;5.420;2022-10-31T05:56:45;1.10;;;0.70;;
71769;SDS011;59605;52.122;5.420;2022-10-31T05:59:11;1.45;;;1.00;;
71769;SDS011;59605;52.122;5.420;2022-10-31T06:01:37;1.40;;;0.98;;
71769;SDS011;59605;52.122;5.420;2022-10-31T06:04:04;1.15;;;0.80;;
71769;SDS011;59605;52.122;5.420;2022-10-31T06:06:30;1.77;;;0.95;;
71769;SDS011;59605;52.122;5.420;2022-10-31T06:08:57;1.30;;;0.90;;
71769;SDS011;59605;52.122;5.420;2022-10-31T06:11:23;1.20;;;0.60;;
71769;SDS011;59605;52.122;5.420;2022-10-31T06:13:49;1.58;;;0.90;;
71769;SDS011;59605;52.122;5.420;2022-10-31T06:16:16;1.38;;;0.80;;
71769;SDS011;59605;52.122;5.420;2022-10-31T06:18:42;1.88;;;0.80;;
71769;SDS011;59605;52.122;5.420;2022-10-31T06:21:08;1.90;;;0.80;;
71769;SDS011;59605;52.122;5.420;2022-10-31T06:23:38;1.45;;;0.82;;
71769;SDS011;59605;52.122;5.420;2022-10-31T06:26:05;1.73;;;0.77;;
71769;SDS011;59605;52.122;5.420;2022-10-31T06:28:31;1.77;;;0.80;;
71769;SDS011;59605;52.122;5.420;2022-10-31T06:30:57;1.90;;;1.10;;
71769;SDS011;59605;52.122;5.420;2022-10-31T06:33:24;2.77;;;0.83;;
71769;SDS011;59605;52.122;5.420;2022-10-31T06:35:50;1.27;;;0.90;;
71769;SDS011;59605;52.122;5.420;2022-10-31T06:38:16;1.17;;;0.80;;
71769;SDS011;59605;52.122;5.420;2022-10-31T06:40:42;1.23;;;0.90;;
71769;SDS011;59605;52.122;5.420;2022-10-31T06:43:09;1.20;;;0.80;;
71769;SDS011;59605;52.122;5.420;2022-10-31T06:45:37;1.90;;;0.90;;
71769;SDS011;59605;52.122;5.420;2022-10-31T06:48:03;2.15;;;0.88;;
71769;SDS011;59605;52.122;5.420;2022-10-31T06:50:42;2.03;;;0.85;;
71769;SDS011;59605;52.122;5.420;2022-10-31T06:53:08;1.52;;;0.93;;
71769;SDS011;59605;52.122;5.420;2022-10-31T06:55:35;2.00;;;0.88;;
71769;SDS011;59605;52.122;5.420;2022-10-31T06:58:01;1.57;;;0.90;;
71769;SDS011;59605;52.122;5.420;2022-10-31T07:00:29;1.30;;;0.90;;
71769;SDS011;59605;52.122;5.420;2022-10-31T07:02:56;1.17;;;0.80;;
71769;SDS011;59605;52.122;5.420;2022-10-31T07:05:24;2.58;;;1.45;;
71769;SDS011;59605;52.122;5.420;2022-10-31T07:07:52;11.32;;;1.20;;
71769;SDS011;59605;52.122;5.420;2022-10-31T07:10:20;1.90;;;0.90;;
71769;SDS011;59605;52.122;5.420;2022-10-31T07:12:46;1.20;;;1.10;;
71769;SDS011;59605;52.122;5.420;2022-10-31T07:15:12;5.32;;;0.90;;
71769;SDS011;59605;52.122;5.420;2022-10-31T07:17:39;1.70;;;0.93;;
71769;SDS011;59605;52.122;5.420;2022-10-31T07:20:05;3.58;;;2.40;;
71769;SDS011;59605;52.122;5.420;2022-10-31T07:22:33;1.80;;;0.83;;
71769;SDS011;59605;52.122;5.420;2022-10-31T07:25:00;1.00;;;0.70;;
71769;SDS011;59605;52.122;5.420;2022-10-31T07:27:27;1.58;;;0.90;;
71769;SDS011;59605;52.122;5.420;2022-10-31T07:29:53;2.47;;;1.10;;
71769;SDS011;59605;52.122;5.420;2022-10-31T07:32:19;2.28;;;0.85;;
71769;SDS011;59605;52.122;5.420;2022-10-31T07:34:46;1.23;;;1.07;;
71769;SDS011;59605;52.122;5.420;2022-10-31T07:37:12;1.90;;;0.70;;
71769;SDS011;59605;52.122;5.420;2022-10-31T07:39:39;2.08;;;1.00;;
71769;SDS011;59605;52.122;5.420;2022-10-31T07:42:05;1.48;;;0.80;;
71769;SDS011;59605;52.122;5.420;2022-10-31T07:44:31;1.38;;;0.82;;
71769;SDS011;59605;52.122;5.420;2022-10-31T07:46:58;2.70;;;0.90;;
71769;SDS011;59605;52.122;5.420;2022-10-31T07:49:25;3.22;;;1.27;;
71769;SDS011;59605;52.122;5.420;2022-10-31T07:51:51;1.20;;;0.88;;
71769;SDS011;59605;52.122;5.420;2022-10-31T07:54:18;1.20;;;0.80;;
71769;SDS011;59605;52.122;5.420;2022-10-31T07:56:44;1.08;;;0.65;;
71769;SDS011;59605;52.122;5.420;2022-10-31T07:59:13;3.13;;;0.90;;
71769;SDS011;59605;52.122;5.420;2022-10-31T08:01:39;2.63;;;1.02;;
71769;SDS011;59605;52.122;5.420;2022-10-31T08:04:06;2.25;;;0.70;;
71769;SDS011;59605;52.122;5.420;2022-10-31T08:06:32;1.85;;;1.05;;
71769;SDS011;59605;52.122;5.420;2022-10-31T08:09:00;1.60;;;0.73;;
71769;SDS011;59605;52.122;5.420;2022-10-31T08:11:26;1.33;;;0.90;;
71769;SDS011;59605;52.122;5.420;2022-10-31T08:13:52;1.15;;;0.80;;
71769;SDS011;59605;52.122;5.420;2022-10-31T08:16:19;2.17;;;1.10;;
71769;SDS011;59605;52.122;5.420;2022-10-31T08:18:45;1.98;;;0.80;;
71769;SDS011;59605;52.122;5.420;2022-10-31T08:21:11;2.17;;;0.80;;
71769;SDS011;59605;52.122;5.420;2022-10-31T08:23:38;3.37;;;1.00;;
71769;SDS011;59605;52.122;5.420;2022-10-31T08:26:04;3.05;;;0.82;;
71769;SDS011;59605;52.122;5.420;2022-10-31T08:28:32;1.15;;;0.68;;
71769;SDS011;59605;52.122;5.420;2022-10-31T08:30:58;1.00;;;0.63;;
71769;SDS011;59605;52.122;5.420;2022-10-31T08:33:24;2.85;;;1.00;;
71769;SDS011;59605;52.122;5.420;2022-10-31T08:35:51;2.80;;;0.83;;
71769;SDS011;59605;52.122;5.420;2022-10-31T08:38:17;1.45;;;1.08;;
71769;SDS011;59605;52.122;5.420;2022-10-31T08:40:47;1.67;;;0.95;;
71769;SDS011;59605;52.122;5.420;2022-10-31T08:43:15;1.42;;;0.82;;
71769;SDS011;59605;52.122;5.420;2022-10-31T08:45:42;3.03;;;1.17;;
71769;SDS011;59605;52.122;5.420;2022-10-31T08:48:11;1.40;;;0.80;;
71769;SDS011;59605;52.122;5.420;2022-10-31T08:50:39;1.58;;;1.00;;
71769;SDS011;59605;52.122;5.420;2022-10-31T08:53:07;3.30;;;1.15;;
71769;SDS011;59605;52.122;5.420;2022-10-31T08:55:38;1.55;;;1.02;;
71769;SDS011;59605;52.122;5.420;2022-10-31T08:58:06;1.70;;;1.17;;
71769;SDS011;59605;52.122;5.420;2022-10-31T09:00:35;3.90;;;0.97;;
71769;SDS011;59605;52.122;5.420;2022-10-31T09:03:03;3.28;;;1.20;;
71769;SDS011;59605;52.122;5.420;2022-10-31T09:05:31;3.55;;;1.10;;
71769;SDS011;59605;52.122;5.420;2022-10-31T09:07:59;4.57;;;1.63;;
71769;SDS011;59605;52.122;5.420;2022-10-31T09:10:27;4.20;;;1.98;;
71769;SDS011;59605;52.122;5.420;2022-10-31T09:12:58;2.03;;;1.40;;
71769;SDS011;59605;52.122;5.420;2022-10-31T09:15:26;2.10;;;1.30;;
71769;SDS011;59605;52.122;5.420;2022-10-31T09:17:53;6.60;;;1.65;;
71769;SDS011;59605;52.122;5.420;2022-10-31T09:20:20;5.25;;;1.27;;
71769;SDS011;59605;52.122;5.420;2022-10-31T09:22:47;2.88;;;1.20;;
71769;SDS011;59605;52.122;5.420;2022-10-31T09:25:13;3.13;;;1.13;;
71769;SDS011;59605;52.122;5.420;2022-10-31T09:27:39;2.78;;;0.85;;
71769;SDS011;59605;52.122;5.420;2022-10-31T09:30:06;2.03;;;1.15;;
71769;SDS011;59605;52.122;5.420;2022-10-31T09:32:33;3.97;;;1.30;;
71769;SDS011;59605;52.122;5.420;2022-10-31T09:34:59;4.18;;;1.30;;
71769;SDS011;59605;52.122;5.420;2022-10-31T09:37:25;2.80;;;1.40;;
71769;SDS011;59605;52.122;5.420;2022-10-31T09:39:52;2.30;;;1.70;;
71769;SDS011;59605;52.122;5.420;2022-10-31T09:42:37;2.70;;;1.55;;
71769;SDS011;59605;52.122;5.420;2022-10-31T09:45:30;2.05;;;1.30;;
71769;SDS011;59605;52.122;5.420;2022-10-31T09:48:42;1.73;;;1.40;;
71769;SDS011;59605;52.122;5.420;2022-10-31T09:51:34;2.87;;;1.37;;
71769;SDS011;59605;52.122;5.420;2022-10-31T09:54:10;4.28;;;1.10;;
71769;SDS011;59605;52.122;5.420;2022-10-31T09:56:40;2.22;;;1.30;;
71769;SDS011;59605;52.122;5.420;2022-10-31T10:02:02;4.28;;;2.33;;
71769;SDS011;59605;52.122;5.420;2022-10-31T10:04:44;4.03;;;1.87;;
71769;SDS011;59605;52.122;5.420;2022-10-31T10:19:02;4.37;;;1.93;;
71769;SDS011;59605;52.122;5.420;2022-10-31T10:30:23;3.03;;;2.00;;
71769;SDS011;59605;52.122;5.420;2022-10-31T10:32:58;2.80;;;1.87;;
71769;SDS011;59605;52.122;5.420;2022-10-31T10:38:01;1.83;;;1.60;;
71769;SDS011;59605;52.122;5.420;2022-10-31T10:40:48;3.03;;;2.00;;
71769;SDS011;59605;52.122;5.420;2022-10-31T10:43:22;3.95;;;1.83;;
71769;SDS011;59605;52.122;5.420;2022-10-31T10:48:58;4.60;;;1.63;;
71769;SDS011;59605;52.122;5.420;2022-10-31T10:51:46;3.08;;;1.48;;
71769;SDS011;59605;52.122;5.420;2022-10-31T10:54:50;4.22;;;1.70;;
71769;SDS011;59605;52.122;5.420;2022-10-31T11:00:31;1.70;;;1.43;;
71769;SDS011;59605;52.122;5.420;2022-10-31T11:03:01;2.13;;;1.42;;
71769;SDS011;59605;52.122;5.420;2022-10-31T11:05:39;1.88;;;1.45;;
71769;SDS011;59605;52.122;5.420;2022-10-31T11:08:23;1.95;;;1.27;;
71769;SDS011;59605;52.122;5.420;2022-10-31T11:10:57;3.58;;;1.50;;
71769;SDS011;59605;52.122;5.420;2022-10-31T11:13:25;1.90;;;1.40;;
71769;SDS011;59605;52.122;5.420;2022-10-31T11:18:30;4.70;;;1.60;;
71769;SDS011;59605;52.122;5.420;2022-10-31T11:21:01;2.40;;;1.33;;
71769;SDS011;59605;52.122;5.420;2022-10-31T11:23:30;2.70;;;1.30;;
71769;SDS011;59605;52.122;5.420;2022-10-31T11:26:04;3.03;;;1.70;;
71769;SDS011;59605;52.122;5.420;2022-10-31T11:28:44;4.45;;;1.45;;
71769;SDS011;59605;52.122;5.420;2022-10-31T11:31:22;5.60;;;1.17;;
71769;SDS011;59605;52.122;5.420;2022-10-31T11:33:52;2.78;;;1.92;;
71769;SDS011;59605;52.122;5.420;2022-10-31T11:36:29;2.20;;;1.42;;
71769;SDS011;59605;52.122;5.420;2022-10-31T11:38:58;2.60;;;1.30;;
71769;SDS011;59605;52.122;5.420;2022-10-31T11:41:34;2.78;;;1.60;;
71769;SDS011;59605;52.122;5.420;2022-10-31T11:44:16;4.88;;;1.65;;
71769;SDS011;59605;52.122;5.420;2022-10-31T11:46:54;2.08;;;1.50;;
71769;SDS011;59605;52.122;5.420;2022-10-31T11:49:39;4.97;;;1.90;;
71769;SDS011;59605;52.122;5.420;2022-10-31T11:52:08;2.63;;;1.60;;
71769;SDS011;59605;52.122;5.420;2022-10-31T11:54:44;4.10;;;2.13;;
71769;SDS011;59605;52.122;5.420;2022-10-31T11:57:23;7.35;;;1.50;;
71769;SDS011;59605;52.122;5.420;2022-10-31T11:59:55;3.30;;;1.60;;
71769;SDS011;59605;52.122;5.420;2022-10-31T12:02:24;2.78;;;1.30;;
71769;SDS011;59605;52.122;5.420;2022-10-31T12:05:02;1.80;;;1.20;;
71769;SDS011;59605;52.122;5.420;2022-10-31T12:07:33;2.78;;;1.48;;
71769;SDS011;59605;52.122;5.420;2022-10-31T12:10:00;5.57;;;1.67;;
71769;SDS011;59605;52.122;5.420;2022-10-31T12:20:32;4.40;;;1.63;;
71769;SDS011;59605;52.122;5.420;2022-10-31T12:29:34;3.85;;;1.23;;
71769;SDS011;59605;52.122;5.420;2022-10-31T12:32:20;2.77;;;1.30;;
71769;SDS011;59605;52.122;5.420;2022-10-31T12:45:54;5.27;;;1.90;;
71769;SDS011;59605;52.122;5.420;2022-10-31T12:48:42;4.63;;;2.05;;
71769;SDS011;59605;52.122;5.420;2022-10-31T12:58:43;3.93;;;2.07;;
71769;SDS011;59605;52.122;5.420;2022-10-31T13:01:39;1.90;;;1.45;;
71769;SDS011;59605;52.122;5.420;2022-10-31T13:04:15;4.95;;;1.77;;
71769;SDS011;59605;52.122;5.420;2022-10-31T13:06:50;7.28;;;3.58;;
71769;SDS011;59605;52.122;5.420;2022-10-31T13:09:28;4.82;;;2.17;;
71769;SDS011;59605;52.122;5.420;2022-10-31T13:12:10;5.10;;;2.30;;
71769;SDS011;59605;52.122;5.420;2022-10-31T13:17:38;5.80;;;2.30;;
71769;SDS011;59605;52.122;5.420;2022-10-31T13:23:14;4.07;;;2.05;;
71769;SDS011;59605;52.122;5.420;2022-10-31T13:26:12;4.03;;;1.93;;
71769;SDS011;59605;52.122;5.420;2022-10-31T13:28:54;4.68;;;2.20;;
71769;SDS011;59605;52.122;5.420;2022-10-31T13:31:27;3.60;;;2.08;;
71769;SDS011;59605;52.122;5.420;2022-10-31T13:33:58;6.22;;;2.92;;
71769;SDS011;59605;52.122;5.420;2022-10-31T13:39:02;7.80;;;2.70;;
71769;SDS011;59605;52.122;5.420;2022-10-31T13:41:46;4.40;;;2.15;;
71769;SDS011;59605;52.122;5.420;2022-10-31T13:44:18;3.88;;;2.13;;
71769;SDS011;59605;52.122;5.420;2022-10-31T13:46:45;5.30;;;1.73;;
71769;SDS011;59605;52.122;5.420;2022-10-31T13:52:11;3.17;;;2.00;;
71769;SDS011;59605;52.122;5.420;2022-10-31T13:54:48;3.95;;;2.08;;
71769;SDS011;59605;52.122;5.420;2022-10-31T13:57:32;4.50;;;2.20;;
71769;SDS011;59605;52.122;5.420;2022-10-31T14:00:22;3.42;;;1.95;;
71769;SDS011;59605;52.122;5.420;2022-10-31T14:02:55;6.45;;;2.65;;
71769;SDS011;59605;52.122;5.420;2022-10-31T14:05:30;3.50;;;1.90;;
71769;SDS011;59605;52.122;5.420;2022-10-31T14:08:00;4.47;;;2.45;;
71769;SDS011;59605;52.122;5.420;2022-10-31T14:10:36;3.33;;;2.65;;
71769;SDS011;59605;52.122;5.420;2022-10-31T14:13:06;6.20;;;2.50;;
71769;SDS011;59605;52.122;5.420;2022-10-31T14:15:41;5.40;;;2.78;;
71769;SDS011;59605;52.122;5.420;2022-10-31T14:18:24;3.33;;;2.30;;
71769;SDS011;59605;52.122;5.420;2022-10-31T14:20:56;4.20;;;2.47;;
71769;SDS011;59605;52.122;5.420;2022-10-31T14:23:38;3.53;;;2.20;;
71769;SDS011;59605;52.122;5.420;2022-10-31T14:28:34;3.97;;;2.20;;
71769;SDS011;59605;52.122;5.420;2022-10-31T14:31:01;3.50;;;2.23;;
71769;SDS011;59605;52.122;5.420;2022-10-31T14:33:28;4.97;;;2.53;;
71769;SDS011;59605;52.122;5.420;2022-10-31T14:36:00;4.10;;;2.30;;
71769;SDS011;59605;52.122;5.420;2022-10-31T14:52:48;4.72;;;2.40;;
71769;SDS011;59605;52.122;5.420;2022-10-31T14:55:17;3.45;;;1.90;;
71769;SDS011;59605;52.122;5.420;2022-10-31T14:57:47;4.23;;;2.27;;
71769;SDS011;59605;52.122;5.420;2022-10-31T15:00:18;3.78;;;2.22;;
71769;SDS011;59605;52.122;5.420;2022-10-31T15:05:28;4.82;;;1.95;;
71769;SDS011;59605;52.122;5.420;2022-10-31T15:07:57;2.80;;;2.13;;
71769;SDS011;59605;52.122;5.420;2022-10-31T15:10:31;4.03;;;2.17;;
71769;SDS011;59605;52.122;5.420;2022-10-31T15:13:08;3.67;;;1.90;;
71769;SDS011;59605;52.122;5.420;2022-10-31T15:15:36;4.05;;;2.10;;
71769;SDS011;59605;52.122;5.420;2022-10-31T15:18:04;2.60;;;1.83;;
71769;SDS011;59605;52.122;5.420;2022-10-31T15:20:33;3.78;;;2.30;;
71769;SDS011;59605;52.122;5.420;2022-10-31T15:23:11;5.53;;;2.20;;
71769;SDS011;59605;52.122;5.420;2022-10-31T15:25:48;4.38;;;2.20;;
71769;SDS011;59605;52.122;5.420;2022-10-31T15:28:16;4.50;;;2.58;;
71769;SDS011;59605;52.122;5.420;2022-10-31T15:30:52;3.72;;;2.42;;
71769;SDS011;59605;52.122;5.420;2022-10-31T15:33:25;4.13;;;2.45;;
71769;SDS011;59605;52.122;5.420;2022-10-31T15:35:59;3.63;;;2.37;;
71769;SDS011;59605;52.122;5.420;2022-10-31T15:38:27;4.07;;;2.92;;
71769;SDS011;59605;52.122;5.420;2022-10-31T15:40:56;4.07;;;2.28;;
71769;SDS011;59605;52.122;5.420;2022-10-31T15:43:32;4.50;;;2.30;;
71769;SDS011;59605;52.122;5.420;2022-10-31T15:46:02;3.80;;;2.72;;
71769;SDS011;59605;52.122;5.420;2022-10-31T15:48:32;3.30;;;2.07;;
71769;SDS011;59605;52.122;5.420;2022-10-31T15:51:00;4.43;;;2.45;;
71769;SDS011;59605;52.122;5.420;2022-10-31T15:53:35;5.22;;;2.90;;
71769;SDS011;59605;52.122;5.420;2022-10-31T15:56:08;3.35;;;2.42;;
71769;SDS011;59605;52.122;5.420;2022-10-31T15:58:42;3.47;;;2.67;;
71769;SDS011;59605;52.122;5.420;2022-10-31T16:04:27;5.30;;;2.85;;
71769;SDS011;59605;52.122;5.420;2022-10-31T16:09:50;3.83;;;2.30;;
71769;SDS011;59605;52.122;5.420;2022-10-31T16:12:19;3.95;;;2.20;;
71769;SDS011;59605;52.122;5.420;2022-10-31T16:14:48;3.57;;;2.17;;
71769;SDS011;59605;52.122;5.420;2022-10-31T16:17:16;6.32;;;2.75;;
71769;SDS011;59605;52.122;5.420;2022-10-31T16:19:48;4.78;;;2.38;;
71769;SDS011;59605;52.122;5.420;2022-10-31T16:22:46;3.17;;;2.50;;
71769;SDS011;59605;52.122;5.420;2022-10-31T16:25:14;2.60;;;2.10;;
71769;SDS011;59605;52.122;5.420;2022-10-31T16:27:50;7.30;;;2.70;;
71769;SDS011;59605;52.122;5.420;2022-10-31T16:30:30;4.78;;;2.13;;
71769;SDS011;59605;52.122;5.420;2022-10-31T16:35:57;3.67;;;2.28;;
71769;SDS011;59605;52.122;5.420;2022-10-31T16:38:44;4.72;;;2.72;;
71769;SDS011;59605;52.122;5.420;2022-10-31T16:41:10;4.70;;;2.30;;
71769;SDS011;59605;52.122;5.420;2022-10-31T16:43:36;6.45;;;2.60;;
71769;SDS011;59605;52.122;5.420;2022-10-31T16:46:03;5.53;;;2.80;;
71769;SDS011;59605;52.122;5.420;2022-10-31T16:48:30;21.58;;;5.32;;
71769;SDS011;59605;52.122;5.420;2022-10-31T16:50:56;42.55;;;8.93;;
71769;SDS011;59605;52.122;5.420;2022-10-31T16:53:22;34.90;;;8.30;;
71769;SDS011;59605;52.122;5.420;2022-10-31T16:55:52;77.65;;;13.10;;
71769;SDS011;59605;52.122;5.420;2022-10-31T16:58:25;42.40;;;9.38;;
71769;SDS011;59605;52.122;5.420;2022-10-31T17:00:53;38.30;;;9.38;;
71769;SDS011;59605;52.122;5.420;2022-10-31T17:03:20;48.28;;;10.77;;
71769;SDS011;59605;52.122;5.420;2022-10-31T17:05:46;49.10;;;10.40;;
71769;SDS011;59605;52.122;5.420;2022-10-31T17:08:13;47.15;;;9.43;;
71769;SDS011;59605;52.122;5.420;2022-10-31T17:10:40;48.00;;;9.57;;
71769;SDS011;59605;52.122;5.420;2022-10-31T17:13:10;35.78;;;8.65;;
71769;SDS011;59605;52.122;5.420;2022-10-31T17:15:44;24.00;;;6.85;;
71769;SDS011;59605;52.122;5.420;2022-10-31T17:18:13;37.63;;;8.23;;
71769;SDS011;59605;52.122;5.420;2022-10-31T17:20:40;37.80;;;9.57;;
71769;SDS011;59605;52.122;5.420;2022-10-31T17:23:11;49.97;;;9.27;;
71769;SDS011;59605;52.122;5.420;2022-10-31T17:25:39;29.83;;;7.05;;
71769;SDS011;59605;52.122;5.420;2022-10-31T17:28:06;30.80;;;7.78;;
71769;SDS011;59605;52.122;5.420;2022-10-31T17:30:32;25.67;;;8.53;;